Longville, MN

5:53 PM CST on December 15, 2017 (GMT -0600)
Longville Municipal

Weather History for KXVG - October, 2013

Change the Weather History Date:

Saturday, October 12, 2013

  Actual Average (KPWC) Record (KPWC)
Temperature  
Mean Temperature 48 °F -  
Max Temperature 55 °F 54 °F 71 °F (1997)
Min Temperature 42 °F 34 °F 17 °F (2012)
Degree Days  
Heating Degree Days 16    
Moisture  
Dew Point 45 °F    
Average Humidity 88    
Maximum Humidity 100    
Minimum Humidity 76    
Precipitation  
Precipitation 0.02 in - - ()
Sea Level Pressure  
Sea Level Pressure 29.78 in    
Wind  
Wind Speed 11 mph (SW)    
Max Wind Speed 16 mph    
Max Gust Speed 25 mph    
Visibility 9 miles    
Events Rain    
Averages and records for this station are not official NWS values.
T = Trace of Precipitation, MM = Missing Value Source: NWS Daily Summary

Daily Weather History Graph

Daily Weather History Graph

Search for Another Location

Airport or City:

Trip Planner

Search our weather history database for the weather conditions in past years. The results will help you decide how hot, cold, wet, or windy it might be!

Date:

Astronomy

Oct. 12, 2013 Rise Set
Actual Time 7:31 AM CDT 6:34 PM CDT
Civil Twilight 7:00 AM CDT 7:05 PM CDT
Nautical Twilight 6:25 AM CDT 7:40 PM CDT
Astronomical Twilight 5:49 AM CDT 8:15 PM CDT
Moon 3:06 PM CDT (10/12) 12:11 AM CDT (10/12)
Length of Visible Light 12h 04m
Length of Day
11h 03m
First Quarter, 59% of the Moon is Illuminated
Oct 12
First Quarter
Oct 18
Full
Oct 26
Last Quarter
Nov 3
New
Nov 9
First Quarter

Hourly Weather History & Observations

Time (CDT) Temp. Windchill Dew Point Humidity Pressure Visibility Wind Dir Wind Speed Gust Speed Precip Events Conditions
12:16 AM 55.4 °F - 53.6 °F 94% 29.54 in 10.0 mi South 16.1 mph 23.0 mph N/A   Scattered Clouds
12:36 AM 55.4 °F - 51.8 °F 88% 29.55 in 10.0 mi South 11.5 mph 23.0 mph N/A   Scattered Clouds
12:56 AM 55.4 °F - 51.8 °F 88% 29.55 in 10.0 mi South 11.5 mph 23.0 mph N/A   Mostly Cloudy
1:16 AM 53.6 °F - 48.2 °F 82% 29.57 in 10.0 mi SSW 12.7 mph 24.2 mph N/A   Overcast
1:36 AM 53.6 °F - 48.2 °F 82% 29.57 in 10.0 mi South 11.5 mph 24.2 mph N/A   Overcast
1:56 AM 51.8 °F - 48.2 °F 88% 29.57 in 10.0 mi SSW 12.7 mph 19.6 mph N/A   Overcast
2:16 AM 51.8 °F - 46.4 °F 82% 29.58 in 10.0 mi South 13.8 mph 23.0 mph N/A   Overcast
2:36 AM 51.8 °F - 44.6 °F 76% 29.59 in 10.0 mi South 16.1 mph 25.3 mph N/A   Overcast
2:56 AM 50.0 °F - 44.6 °F 82% 29.59 in 10.0 mi South 10.4 mph 23.0 mph N/A   Overcast
3:16 AM 50.0 °F - 44.6 °F 82% 29.59 in 10.0 mi SSW 12.7 mph 23.0 mph N/A   Overcast
3:36 AM 50.0 °F - 44.6 °F 82% 29.60 in 10.0 mi South 15.0 mph 21.9 mph N/A   Overcast
3:56 AM 50.0 °F - 44.6 °F 82% 29.61 in 10.0 mi South 15.0 mph 24.2 mph N/A   Overcast
4:16 AM 48.2 °F - 44.6 °F 87% 29.61 in 10.0 mi South 12.7 mph 17.3 mph N/A   Overcast
4:36 AM 48.2 °F - 44.6 °F 87% 29.62 in 10.0 mi SSW 13.8 mph 20.7 mph N/A   Overcast
4:56 AM 48.2 °F - 44.6 °F 87% 29.62 in 10.0 mi SSW 10.4 mph 21.9 mph N/A   Overcast
5:16 AM 48.2 °F - 44.6 °F 87% 29.62 in 10.0 mi South 8.1 mph 18.4 mph N/A   Overcast
5:36 AM 48.2 °F - 44.6 °F 87% 29.62 in 10.0 mi South 11.5 mph 17.3 mph N/A   Overcast
5:56 AM 48.2 °F - 44.6 °F 87% 29.63 in 10.0 mi South 15.0 mph 20.7 mph N/A   Overcast
6:16 AM 48.2 °F - 44.6 °F 87% 29.63 in 10.0 mi South 9.2 mph 17.3 mph N/A   Overcast
6:36 AM 48.2 °F - 44.6 °F 87% 29.64 in 10.0 mi South 10.4 mph 20.7 mph N/A   Overcast
6:56 AM 48.2 °F - 44.6 °F 87% 29.64 in 10.0 mi SSW 9.2 mph 17.3 mph N/A   Overcast
7:16 AM 48.2 °F - 44.6 °F 87% 29.64 in 10.0 mi South 10.4 mph 17.3 mph N/A   Overcast
7:36 AM 48.2 °F - 44.6 °F 87% 29.65 in 10.0 mi South 10.4 mph 17.3 mph N/A   Overcast
7:56 AM 48.2 °F - 44.6 °F 87% 29.66 in 10.0 mi SSW 11.5 mph 18.4 mph N/A   Overcast
8:16 AM 48.2 °F - 44.6 °F 87% 29.67 in 10.0 mi South 8.1 mph 18.4 mph N/A   Overcast
8:36 AM 48.2 °F - 44.6 °F 87% 29.67 in 10.0 mi South 10.4 mph 23.0 mph N/A   Overcast
8:56 AM 48.2 °F - 44.6 °F 87% 29.68 in 10.0 mi South 10.4 mph 16.1 mph N/A   Overcast
9:16 AM 48.2 °F - 44.6 °F 87% 29.69 in 10.0 mi SSW 8.1 mph 17.3 mph N/A   Overcast
9:36 AM 48.2 °F - 44.6 °F 87% 29.69 in 10.0 mi SSW 10.4 mph 19.6 mph N/A   Overcast
9:56 AM 48.2 °F - 44.6 °F 87% 29.70 in 5.0 mi South 12.7 mph 19.6 mph N/A   Overcast
10:16 AM 48.2 °F - 44.6 °F 87% 29.70 in 7.0 mi SSW 9.2 mph 19.6 mph N/A   Overcast
10:36 AM 48.2 °F - 44.6 °F 87% 29.71 in 7.0 mi SSW 9.2 mph - N/A   Overcast
10:56 AM 48.2 °F - 46.4 °F 93% 29.71 in 5.0 mi SSW 10.4 mph 18.4 mph N/A   Overcast
11:16 AM 48.2 °F - 46.4 °F 93% 29.72 in 7.0 mi SSW 11.5 mph 17.3 mph N/A   Overcast
11:36 AM 48.2 °F - 46.4 °F 93% 29.73 in 4.0 mi SSW 11.5 mph 17.3 mph N/A   Overcast
11:56 AM 48.2 °F - 46.4 °F 93% 29.73 in 5.0 mi SSW 8.1 mph - N/A   Light Drizzle
12:16 PM 50.0 °F - 46.4 °F 87% 29.74 in 10.0 mi SSW 9.2 mph 16.1 mph N/A   Overcast
12:36 PM 51.8 °F - 46.4 °F 82% 29.74 in 10.0 mi SW 10.4 mph 17.3 mph N/A   Overcast
12:56 PM 50.0 °F - 46.4 °F 87% 29.75 in 7.0 mi SW 11.5 mph 17.3 mph N/A   Overcast
1:16 PM 48.2 °F - 46.4 °F 93% 29.76 in 4.0 mi SW 10.4 mph 19.6 mph N/A Rain Rain
1:36 PM 48.2 °F - 46.4 °F 93% 29.77 in 7.0 mi WSW 9.2 mph - N/A   Overcast
1:56 PM 48.2 °F - 46.4 °F 93% 29.78 in 4.0 mi WSW 11.5 mph 17.3 mph N/A   Light Drizzle
2:16 PM 48.2 °F - 46.4 °F 93% 29.79 in 4.0 mi West 8.1 mph - N/A Rain Light Rain
2:36 PM 48.2 °F - 46.4 °F 93% 29.80 in 4.0 mi West 8.1 mph - 0.01 in Rain Rain
2:56 PM 48.2 °F - 46.4 °F 93% 29.81 in 5.0 mi WSW 8.1 mph - N/A   Light Drizzle
3:15 PM 46.4 °F 43.5 °F 46.4 °F 100% 29.82 in 4.0 mi West 5.8 mph - 0.01 in Rain Rain
3:36 PM 46.4 °F 43.5 °F 46.4 °F 100% 29.84 in 4.0 mi West 5.8 mph - 0.01 in Rain Light Rain
3:56 PM 46.4 °F 41.9 °F 46.4 °F 100% 29.85 in 7.0 mi West 9.2 mph - N/A   Drizzle
4:16 PM 46.4 °F 40.7 °F 46.4 °F 100% 29.86 in 7.0 mi West 12.7 mph - N/A   Drizzle
4:36 PM 46.4 °F 42.4 °F 44.6 °F 93% 29.88 in 7.0 mi West 8.1 mph - N/A Rain Rain
4:56 PM 46.4 °F 41.1 °F 44.6 °F 93% 29.89 in 7.0 mi West 11.5 mph - N/A   Drizzle
5:16 PM 46.4 °F 41.9 °F 44.6 °F 93% 29.90 in 10.0 mi West 9.2 mph - N/A   Light Drizzle
5:36 PM 46.4 °F 41.1 °F 44.6 °F 93% 29.92 in 10.0 mi West 11.5 mph 17.3 mph N/A   Light Drizzle
5:56 PM 46.4 °F 43.5 °F 44.6 °F 93% 29.93 in 10.0 mi West 5.8 mph 9.2 mph N/A   Overcast
6:16 PM 46.4 °F 41.1 °F 44.6 °F 93% 29.94 in 10.0 mi West 11.5 mph - N/A   Drizzle
6:36 PM 46.4 °F 41.9 °F 42.8 °F 87% 29.96 in 10.0 mi West 9.2 mph - N/A   Drizzle
6:56 PM 46.4 °F 42.4 °F 42.8 °F 87% 29.97 in 10.0 mi West 8.1 mph - N/A   Drizzle
7:16 PM 46.4 °F 41.9 °F 42.8 °F 87% 29.98 in 10.0 mi West 9.2 mph - N/A   Light Drizzle
7:36 PM 46.4 °F 42.9 °F 42.8 °F 87% 29.99 in 10.0 mi West 6.9 mph - N/A   Overcast
7:56 PM 46.4 °F 42.4 °F 42.8 °F 87% 30.00 in 10.0 mi West 8.1 mph - N/A   Overcast
8:16 PM 46.4 °F 42.4 °F 42.8 °F 87% 30.02 in 10.0 mi West 8.1 mph - N/A   Overcast
8:36 PM 46.4 °F 41.5 °F 42.8 °F 87% 30.02 in 10.0 mi West 10.4 mph - N/A   Overcast
8:56 PM 44.6 °F 40.2 °F 41.0 °F 87% 30.03 in 10.0 mi West 8.1 mph - N/A   Scattered Clouds
9:16 PM 44.6 °F 40.7 °F 41.0 °F 87% 30.05 in 10.0 mi West 6.9 mph - N/A   Scattered Clouds
9:36 PM 44.6 °F 41.4 °F 41.0 °F 87% 30.05 in 10.0 mi West 5.8 mph - N/A   Mostly Cloudy
9:56 PM 42.8 °F 40.1 °F 41.0 °F 93% 30.06 in 10.0 mi West 4.6 mph - N/A   Mostly Cloudy
10:16 PM 44.6 °F 43.1 °F 41.0 °F 87% 30.07 in 10.0 mi West 3.5 mph - N/A   Overcast
10:36 PM 42.8 °F 41.1 °F 39.2 °F 87% 30.08 in 10.0 mi West 3.5 mph - N/A   Overcast
10:56 PM 44.6 °F 41.4 °F 41.0 °F 87% 30.10 in 10.0 mi West 5.8 mph - N/A   Overcast
11:16 PM 44.6 °F 42.2 °F 41.0 °F 87% 30.10 in 10.0 mi West 4.6 mph - N/A   Overcast
11:36 PM 44.6 °F 41.4 °F 39.2 °F 81% 30.12 in 10.0 mi West 5.8 mph - N/A   Overcast
11:56 PM 42.8 °F 39.3 °F 39.2 °F 87% 30.13 in 10.0 mi West 5.8 mph - N/A   Overcast